sensor_id;sensor_type;location;lat;lon;timestamp;P1;durP1;ratioP1;P2;durP2;ratioP2
80237;SDS011;69544;42.138;24.742;2023-05-08T00:00:27;3.80;;;2.53;;
80237;SDS011;69544;42.138;24.742;2023-05-08T00:02:52;3.47;;;2.42;;
80237;SDS011;69544;42.138;24.742;2023-05-08T00:05:18;3.80;;;2.70;;
80237;SDS011;69544;42.138;24.742;2023-05-08T00:07:44;3.42;;;2.50;;
80237;SDS011;69544;42.138;24.742;2023-05-08T00:10:10;3.90;;;2.47;;
80237;SDS011;69544;42.138;24.742;2023-05-08T00:12:36;3.92;;;2.45;;
80237;SDS011;69544;42.138;24.742;2023-05-08T00:15:02;4.60;;;2.50;;
80237;SDS011;69544;42.138;24.742;2023-05-08T00:17:31;3.88;;;2.50;;
80237;SDS011;69544;42.138;24.742;2023-05-08T00:19:57;3.65;;;2.35;;
80237;SDS011;69544;42.138;24.742;2023-05-08T00:22:22;3.10;;;2.40;;
80237;SDS011;69544;42.138;24.742;2023-05-08T00:24:48;3.47;;;2.63;;
80237;SDS011;69544;42.138;24.742;2023-05-08T00:27:14;3.40;;;2.40;;
80237;SDS011;69544;42.138;24.742;2023-05-08T00:29:40;2.97;;;2.30;;
80237;SDS011;69544;42.138;24.742;2023-05-08T00:32:06;3.75;;;2.60;;
80237;SDS011;69544;42.138;24.742;2023-05-08T00:34:32;4.40;;;2.42;;
80237;SDS011;69544;42.138;24.742;2023-05-08T00:36:58;5.13;;;2.20;;
80237;SDS011;69544;42.138;24.742;2023-05-08T00:39:23;3.30;;;2.20;;
80237;SDS011;69544;42.138;24.742;2023-05-08T00:41:49;3.58;;;2.50;;
80237;SDS011;69544;42.138;24.742;2023-05-08T00:44:15;4.55;;;2.70;;
80237;SDS011;69544;42.138;24.742;2023-05-08T00:46:41;4.90;;;2.53;;
80237;SDS011;69544;42.138;24.742;2023-05-08T00:49:08;7.22;;;2.55;;
80237;SDS011;69544;42.138;24.742;2023-05-08T00:51:37;3.08;;;2.33;;
80237;SDS011;69544;42.138;24.742;2023-05-08T00:54:04;5.53;;;2.40;;
80237;SDS011;69544;42.138;24.742;2023-05-08T00:56:30;5.45;;;2.70;;
80237;SDS011;69544;42.138;24.742;2023-05-08T00:58:58;3.83;;;2.50;;
80237;SDS011;69544;42.138;24.742;2023-05-08T01:01:24;2.97;;;2.00;;
80237;SDS011;69544;42.138;24.742;2023-05-08T01:03:50;3.83;;;2.60;;
80237;SDS011;69544;42.138;24.742;2023-05-08T01:06:16;4.55;;;2.50;;
80237;SDS011;69544;42.138;24.742;2023-05-08T01:08:43;3.83;;;2.50;;
80237;SDS011;69544;42.138;24.742;2023-05-08T01:22:32;4.07;;;2.35;;
80237;SDS011;69544;42.138;24.742;2023-05-08T01:44:52;5.45;;;2.67;;
80237;SDS011;69544;42.138;24.742;2023-05-08T01:47:23;4.93;;;2.60;;
80237;SDS011;69544;42.138;24.742;2023-05-08T01:49:55;2.63;;;2.40;;
80237;SDS011;69544;42.138;24.742;2023-05-08T01:52:38;5.00;;;2.53;;
80237;SDS011;69544;42.138;24.742;2023-05-08T01:55:10;4.88;;;2.42;;
80237;SDS011;69544;42.138;24.742;2023-05-08T01:57:43;5.18;;;2.83;;
80237;SDS011;69544;42.138;24.742;2023-05-08T02:00:12;3.92;;;2.50;;
80237;SDS011;69544;42.138;24.742;2023-05-08T02:02:41;6.75;;;2.60;;
80237;SDS011;69544;42.138;24.742;2023-05-08T02:05:09;4.20;;;2.70;;
80237;SDS011;69544;42.138;24.742;2023-05-08T02:07:36;4.57;;;2.50;;
80237;SDS011;69544;42.138;24.742;2023-05-08T02:10:04;4.95;;;2.45;;
80237;SDS011;69544;42.138;24.742;2023-05-08T02:12:30;4.88;;;2.60;;
80237;SDS011;69544;42.138;24.742;2023-05-08T02:14:58;5.70;;;2.50;;
80237;SDS011;69544;42.138;24.742;2023-05-08T02:17:25;6.70;;;2.50;;
80237;SDS011;69544;42.138;24.742;2023-05-08T02:19:52;7.10;;;2.60;;
80237;SDS011;69544;42.138;24.742;2023-05-08T02:22:20;3.45;;;2.45;;
80237;SDS011;69544;42.138;24.742;2023-05-08T02:24:48;5.72;;;2.45;;
80237;SDS011;69544;42.138;24.742;2023-05-08T02:27:19;4.45;;;2.50;;
80237;SDS011;69544;42.138;24.742;2023-05-08T02:29:48;4.63;;;2.70;;
80237;SDS011;69544;42.138;24.742;2023-05-08T02:32:18;7.23;;;2.73;;
80237;SDS011;69544;42.138;24.742;2023-05-08T02:34:46;5.20;;;2.67;;
80237;SDS011;69544;42.138;24.742;2023-05-08T02:37:15;6.70;;;2.78;;
80237;SDS011;69544;42.138;24.742;2023-05-08T02:39:43;4.18;;;2.47;;
80237;SDS011;69544;42.138;24.742;2023-05-08T02:42:11;4.38;;;2.55;;
80237;SDS011;69544;42.138;24.742;2023-05-08T02:44:37;3.13;;;2.40;;
80237;SDS011;69544;42.138;24.742;2023-05-08T02:47:18;3.63;;;2.53;;
80237;SDS011;69544;42.138;24.742;2023-05-08T02:49:56;9.25;;;2.78;;
80237;SDS011;69544;42.138;24.742;2023-05-08T02:52:32;4.63;;;2.60;;
80237;SDS011;69544;42.138;24.742;2023-05-08T02:57:52;7.60;;;2.65;;
80237;SDS011;69544;42.138;24.742;2023-05-08T03:00:31;8.85;;;3.08;;
80237;SDS011;69544;42.138;24.742;2023-05-08T03:03:20;5.07;;;2.97;;
80237;SDS011;69544;42.138;24.742;2023-05-08T03:05:53;4.78;;;2.90;;
80237;SDS011;69544;42.138;24.742;2023-05-08T03:08:28;6.50;;;2.80;;
80237;SDS011;69544;42.138;24.742;2023-05-08T03:10:58;7.93;;;2.60;;
80237;SDS011;69544;42.138;24.742;2023-05-08T03:15:56;5.85;;;2.70;;
80237;SDS011;69544;42.138;24.742;2023-05-08T03:18:29;3.95;;;2.55;;
80237;SDS011;69544;42.138;24.742;2023-05-08T03:21:00;5.55;;;2.75;;
80237;SDS011;69544;42.138;24.742;2023-05-08T03:23:28;5.75;;;3.00;;
80237;SDS011;69544;42.138;24.742;2023-05-08T03:25:57;6.88;;;2.75;;
80237;SDS011;69544;42.138;24.742;2023-05-08T03:28:25;9.10;;;3.03;;
80237;SDS011;69544;42.138;24.742;2023-05-08T03:30:52;6.93;;;3.00;;
80237;SDS011;69544;42.138;24.742;2023-05-08T03:33:20;6.85;;;2.90;;
80237;SDS011;69544;42.138;24.742;2023-05-08T03:35:47;5.60;;;3.05;;
80237;SDS011;69544;42.138;24.742;2023-05-08T03:38:14;4.30;;;2.70;;
80237;SDS011;69544;42.138;24.742;2023-05-08T03:40:40;6.75;;;3.13;;
80237;SDS011;69544;42.138;24.742;2023-05-08T03:43:06;7.03;;;2.92;;
80237;SDS011;69544;42.138;24.742;2023-05-08T03:45:34;9.40;;;3.10;;
80237;SDS011;69544;42.138;24.742;2023-05-08T03:48:01;7.05;;;3.00;;
80237;SDS011;69544;42.138;24.742;2023-05-08T03:50:32;6.88;;;3.05;;
80237;SDS011;69544;42.138;24.742;2023-05-08T03:52:59;6.35;;;3.00;;
80237;SDS011;69544;42.138;24.742;2023-05-08T03:55:25;4.93;;;2.75;;
80237;SDS011;69544;42.138;24.742;2023-05-08T04:02:56;5.30;;;2.80;;
80237;SDS011;69544;42.138;24.742;2023-05-08T04:05:46;4.25;;;2.70;;
80237;SDS011;69544;42.138;24.742;2023-05-08T04:08:18;5.50;;;2.70;;
80237;SDS011;69544;42.138;24.742;2023-05-08T04:10:49;6.30;;;2.85;;
80237;SDS011;69544;42.138;24.742;2023-05-08T04:13:30;6.43;;;2.95;;
80237;SDS011;69544;42.138;24.742;2023-05-08T04:16:05;5.78;;;2.67;;
80237;SDS011;69544;42.138;24.742;2023-05-08T04:18:36;9.38;;;2.92;;
80237;SDS011;69544;42.138;24.742;2023-05-08T04:21:07;5.75;;;2.70;;
80237;SDS011;69544;42.138;24.742;2023-05-08T04:23:35;6.10;;;2.80;;
80237;SDS011;69544;42.138;24.742;2023-05-08T04:26:04;6.68;;;3.00;;
80237;SDS011;69544;42.138;24.742;2023-05-08T04:28:30;7.90;;;3.17;;
80237;SDS011;69544;42.138;24.742;2023-05-08T04:30:58;6.35;;;3.00;;
80237;SDS011;69544;42.138;24.742;2023-05-08T04:33:24;6.97;;;2.70;;
80237;SDS011;69544;42.138;24.742;2023-05-08T04:35:52;5.20;;;2.90;;
80237;SDS011;69544;42.138;24.742;2023-05-08T04:38:18;5.82;;;2.75;;
80237;SDS011;69544;42.138;24.742;2023-05-08T04:40:44;6.70;;;2.70;;
80237;SDS011;69544;42.138;24.742;2023-05-08T04:43:10;4.60;;;2.85;;
80237;SDS011;69544;42.138;24.742;2023-05-08T04:45:35;5.38;;;2.90;;
80237;SDS011;69544;42.138;24.742;2023-05-08T04:48:01;5.78;;;2.90;;
80237;SDS011;69544;42.138;24.742;2023-05-08T04:50:27;6.13;;;2.80;;
80237;SDS011;69544;42.138;24.742;2023-05-08T04:52:52;6.75;;;3.00;;
80237;SDS011;69544;42.138;24.742;2023-05-08T04:55:18;9.05;;;2.92;;
80237;SDS011;69544;42.138;24.742;2023-05-08T04:57:44;6.25;;;2.85;;
80237;SDS011;69544;42.138;24.742;2023-05-08T05:00:10;5.03;;;2.80;;
80237;SDS011;69544;42.138;24.742;2023-05-08T05:02:36;7.32;;;2.92;;
80237;SDS011;69544;42.138;24.742;2023-05-08T05:05:02;7.85;;;2.95;;
80237;SDS011;69544;42.138;24.742;2023-05-08T05:07:28;5.85;;;2.60;;
80237;SDS011;69544;42.138;24.742;2023-05-08T05:09:53;6.88;;;2.90;;
80237;SDS011;69544;42.138;24.742;2023-05-08T05:12:19;10.07;;;2.80;;
80237;SDS011;69544;42.138;24.742;2023-05-08T05:14:45;5.50;;;2.85;;
80237;SDS011;69544;42.138;24.742;2023-05-08T05:17:10;4.47;;;2.88;;
80237;SDS011;69544;42.138;24.742;2023-05-08T05:19:36;6.97;;;2.83;;
80237;SDS011;69544;42.138;24.742;2023-05-08T05:22:02;5.85;;;2.85;;
80237;SDS011;69544;42.138;24.742;2023-05-08T05:24:30;4.43;;;2.60;;
80237;SDS011;69544;42.138;24.742;2023-05-08T05:26:55;8.40;;;2.92;;
80237;SDS011;69544;42.138;24.742;2023-05-08T05:29:21;8.93;;;2.92;;
80237;SDS011;69544;42.138;24.742;2023-05-08T05:31:47;5.20;;;2.90;;
80237;SDS011;69544;42.138;24.742;2023-05-08T05:34:13;7.10;;;3.00;;
80237;SDS011;69544;42.138;24.742;2023-05-08T05:36:39;5.25;;;2.60;;
80237;SDS011;69544;42.138;24.742;2023-05-08T05:39:05;9.02;;;3.08;;
80237;SDS011;69544;42.138;24.742;2023-05-08T05:41:30;5.40;;;2.63;;
80237;SDS011;69544;42.138;24.742;2023-05-08T05:43:56;7.60;;;2.90;;
80237;SDS011;69544;42.138;24.742;2023-05-08T05:46:22;4.85;;;2.53;;
80237;SDS011;69544;42.138;24.742;2023-05-08T05:48:56;5.97;;;2.83;;
80237;SDS011;69544;42.138;24.742;2023-05-08T05:51:22;7.18;;;2.95;;
80237;SDS011;69544;42.138;24.742;2023-05-08T05:53:48;4.63;;;2.70;;
80237;SDS011;69544;42.138;24.742;2023-05-08T05:56:14;6.45;;;2.80;;
80237;SDS011;69544;42.138;24.742;2023-05-08T05:58:39;7.78;;;2.90;;
80237;SDS011;69544;42.138;24.742;2023-05-08T06:01:09;4.05;;;2.70;;
80237;SDS011;69544;42.138;24.742;2023-05-08T06:03:35;4.63;;;2.70;;
80237;SDS011;69544;42.138;24.742;2023-05-08T06:06:01;6.45;;;2.70;;
80237;SDS011;69544;42.138;24.742;2023-05-08T06:08:27;4.63;;;2.95;;
80237;SDS011;69544;42.138;24.742;2023-05-08T06:10:53;3.97;;;2.50;;
80237;SDS011;69544;42.138;24.742;2023-05-08T06:13:19;4.78;;;2.53;;
80237;SDS011;69544;42.138;24.742;2023-05-08T06:15:45;5.95;;;2.65;;
80237;SDS011;69544;42.138;24.742;2023-05-08T06:18:11;6.20;;;2.92;;
80237;SDS011;69544;42.138;24.742;2023-05-08T06:20:37;3.97;;;2.58;;
80237;SDS011;69544;42.138;24.742;2023-05-08T06:23:03;4.03;;;2.60;;
80237;SDS011;69544;42.138;24.742;2023-05-08T06:25:29;4.57;;;2.53;;
80237;SDS011;69544;42.138;24.742;2023-05-08T06:27:55;5.70;;;2.67;;
80237;SDS011;69544;42.138;24.742;2023-05-08T06:30:21;4.65;;;2.60;;
80237;SDS011;69544;42.138;24.742;2023-05-08T06:32:47;6.03;;;2.72;;
80237;SDS011;69544;42.138;24.742;2023-05-08T06:35:13;7.28;;;2.90;;
80237;SDS011;69544;42.138;24.742;2023-05-08T06:37:43;6.90;;;2.70;;
80237;SDS011;69544;42.138;24.742;2023-05-08T06:40:12;4.43;;;2.70;;
80237;SDS011;69544;42.138;24.742;2023-05-08T06:42:39;3.58;;;2.55;;
80237;SDS011;69544;42.138;24.742;2023-05-08T06:45:05;4.80;;;2.83;;
80237;SDS011;69544;42.138;24.742;2023-05-08T06:47:32;4.00;;;2.53;;
80237;SDS011;69544;42.138;24.742;2023-05-08T06:49:59;6.15;;;3.10;;
80237;SDS011;69544;42.138;24.742;2023-05-08T06:52:24;5.55;;;3.00;;
80237;SDS011;69544;42.138;24.742;2023-05-08T06:54:50;4.35;;;2.63;;
80237;SDS011;69544;42.138;24.742;2023-05-08T06:57:16;5.78;;;2.60;;
80237;SDS011;69544;42.138;24.742;2023-05-08T06:59:42;4.35;;;2.83;;
80237;SDS011;69544;42.138;24.742;2023-05-08T07:02:08;5.35;;;2.58;;
80237;SDS011;69544;42.138;24.742;2023-05-08T07:04:34;5.15;;;2.70;;
80237;SDS011;69544;42.138;24.742;2023-05-08T07:07:01;4.38;;;2.53;;
80237;SDS011;69544;42.138;24.742;2023-05-08T07:09:26;6.35;;;2.67;;
80237;SDS011;69544;42.138;24.742;2023-05-08T07:11:52;7.82;;;2.97;;
80237;SDS011;69544;42.138;24.742;2023-05-08T07:14:18;5.13;;;3.22;;
80237;SDS011;69544;42.138;24.742;2023-05-08T07:16:44;4.75;;;2.75;;
80237;SDS011;69544;42.138;24.742;2023-05-08T07:19:10;7.63;;;3.30;;
80237;SDS011;69544;42.138;24.742;2023-05-08T07:21:35;5.38;;;3.30;;
80237;SDS011;69544;42.138;24.742;2023-05-08T07:24:03;5.35;;;2.80;;
80237;SDS011;69544;42.138;24.742;2023-05-08T07:26:30;7.30;;;2.90;;
80237;SDS011;69544;42.138;24.742;2023-05-08T07:28:55;6.13;;;3.00;;
80237;SDS011;69544;42.138;24.742;2023-05-08T07:31:21;5.00;;;3.05;;
80237;SDS011;69544;42.138;24.742;2023-05-08T07:33:47;6.57;;;2.83;;
80237;SDS011;69544;42.138;24.742;2023-05-08T07:36:13;5.65;;;2.90;;
80237;SDS011;69544;42.138;24.742;2023-05-08T07:38:38;7.15;;;3.00;;
80237;SDS011;69544;42.138;24.742;2023-05-08T07:41:04;4.75;;;3.10;;
80237;SDS011;69544;42.138;24.742;2023-05-08T07:43:31;4.90;;;2.97;;
80237;SDS011;69544;42.138;24.742;2023-05-08T07:45:57;5.78;;;3.08;;
80237;SDS011;69544;42.138;24.742;2023-05-08T07:48:22;4.38;;;2.80;;
80237;SDS011;69544;42.138;24.742;2023-05-08T07:50:49;8.13;;;2.90;;
80237;SDS011;69544;42.138;24.742;2023-05-08T07:53:15;4.53;;;2.88;;
80237;SDS011;69544;42.138;24.742;2023-05-08T07:55:41;5.03;;;3.00;;
80237;SDS011;69544;42.138;24.742;2023-05-08T07:58:06;6.30;;;3.10;;
80237;SDS011;69544;42.138;24.742;2023-05-08T08:00:32;4.78;;;2.80;;
80237;SDS011;69544;42.138;24.742;2023-05-08T08:02:58;5.18;;;2.80;;
80237;SDS011;69544;42.138;24.742;2023-05-08T08:05:24;5.25;;;3.00;;
80237;SDS011;69544;42.138;24.742;2023-05-08T08:07:49;6.07;;;2.78;;
80237;SDS011;69544;42.138;24.742;2023-05-08T08:10:15;5.25;;;3.15;;
80237;SDS011;69544;42.138;24.742;2023-05-08T08:12:41;5.03;;;2.90;;
80237;SDS011;69544;42.138;24.742;2023-05-08T08:15:07;5.97;;;3.03;;
80237;SDS011;69544;42.138;24.742;2023-05-08T08:17:33;4.55;;;2.80;;
80237;SDS011;69544;42.138;24.742;2023-05-08T08:19:58;6.25;;;3.10;;
80237;SDS011;69544;42.138;24.742;2023-05-08T08:22:24;4.30;;;2.97;;
80237;SDS011;69544;42.138;24.742;2023-05-08T08:24:51;6.50;;;2.95;;
80237;SDS011;69544;42.138;24.742;2023-05-08T08:27:18;5.25;;;3.03;;
80237;SDS011;69544;42.138;24.742;2023-05-08T08:29:44;3.72;;;2.67;;
80237;SDS011;69544;42.138;24.742;2023-05-08T08:32:10;4.45;;;2.80;;
80237;SDS011;69544;42.138;24.742;2023-05-08T08:34:36;3.90;;;2.75;;
80237;SDS011;69544;42.138;24.742;2023-05-08T08:37:04;5.63;;;3.00;;
80237;SDS011;69544;42.138;24.742;2023-05-08T08:39:34;4.38;;;2.80;;
80237;SDS011;69544;42.138;24.742;2023-05-08T08:42:00;5.47;;;2.78;;
80237;SDS011;69544;42.138;24.742;2023-05-08T08:44:26;4.97;;;2.70;;
80237;SDS011;69544;42.138;24.742;2023-05-08T08:46:52;5.18;;;2.85;;
80237;SDS011;69544;42.138;24.742;2023-05-08T08:49:40;6.03;;;2.83;;
80237;SDS011;69544;42.138;24.742;2023-05-08T08:52:14;7.15;;;2.90;;
80237;SDS011;69544;42.138;24.742;2023-05-08T08:54:40;6.13;;;3.30;;
80237;SDS011;69544;42.138;24.742;2023-05-08T08:57:12;5.28;;;3.35;;
80237;SDS011;69544;42.138;24.742;2023-05-08T08:59:38;4.57;;;2.83;;
80237;SDS011;69544;42.138;24.742;2023-05-08T09:02:08;5.40;;;3.00;;
80237;SDS011;69544;42.138;24.742;2023-05-08T09:04:37;4.15;;;2.90;;
80237;SDS011;69544;42.138;24.742;2023-05-08T09:07:03;5.60;;;3.00;;
80237;SDS011;69544;42.138;24.742;2023-05-08T09:09:29;4.55;;;2.75;;
80237;SDS011;69544;42.138;24.742;2023-05-08T09:12:05;7.85;;;2.92;;
80237;SDS011;69544;42.138;24.742;2023-05-08T09:14:31;5.15;;;2.90;;
80237;SDS011;69544;42.138;24.742;2023-05-08T09:16:57;3.90;;;2.70;;
80237;SDS011;69544;42.138;24.742;2023-05-08T09:19:22;4.32;;;2.67;;
80237;SDS011;69544;42.138;24.742;2023-05-08T09:21:50;7.15;;;3.08;;
80237;SDS011;69544;42.138;24.742;2023-05-08T09:24:16;5.93;;;3.00;;
80237;SDS011;69544;42.138;24.742;2023-05-08T09:26:42;5.35;;;3.10;;
80237;SDS011;69544;42.138;24.742;2023-05-08T09:29:11;6.00;;;2.88;;
80237;SDS011;69544;42.138;24.742;2023-05-08T09:31:39;6.93;;;2.72;;
80237;SDS011;69544;42.138;24.742;2023-05-08T09:34:07;4.70;;;2.85;;
80237;SDS011;69544;42.138;24.742;2023-05-08T09:36:33;4.95;;;2.88;;
80237;SDS011;69544;42.138;24.742;2023-05-08T09:39:00;5.03;;;2.78;;
80237;SDS011;69544;42.138;24.742;2023-05-08T09:41:26;5.90;;;3.08;;
80237;SDS011;69544;42.138;24.742;2023-05-08T09:44:02;8.73;;;3.15;;
80237;SDS011;69544;42.138;24.742;2023-05-08T09:46:29;5.45;;;2.78;;
80237;SDS011;69544;42.138;24.742;2023-05-08T09:48:57;4.95;;;2.83;;
80237;SDS011;69544;42.138;24.742;2023-05-08T09:51:25;7.32;;;2.63;;
80237;SDS011;69544;42.138;24.742;2023-05-08T09:53:53;4.75;;;2.78;;
80237;SDS011;69544;42.138;24.742;2023-05-08T09:59:25;5.15;;;2.75;;
80237;SDS011;69544;42.138;24.742;2023-05-08T10:01:52;6.22;;;2.83;;
80237;SDS011;69544;42.138;24.742;2023-05-08T10:04:35;6.15;;;2.92;;
80237;SDS011;69544;42.138;24.742;2023-05-08T10:07:02;7.13;;;2.85;;
80237;SDS011;69544;42.138;24.742;2023-05-08T10:09:28;5.03;;;2.90;;
80237;SDS011;69544;42.138;24.742;2023-05-08T10:11:54;4.43;;;2.80;;
80237;SDS011;69544;42.138;24.742;2023-05-08T10:14:23;4.43;;;2.90;;
80237;SDS011;69544;42.138;24.742;2023-05-08T10:16:50;4.07;;;2.75;;
80237;SDS011;69544;42.138;24.742;2023-05-08T10:19:18;6.45;;;2.72;;
80237;SDS011;69544;42.138;24.742;2023-05-08T10:21:48;4.40;;;2.67;;
80237;SDS011;69544;42.138;24.742;2023-05-08T10:24:19;3.92;;;2.90;;
80237;SDS011;69544;42.138;24.742;2023-05-08T10:29:52;4.43;;;2.63;;
80237;SDS011;69544;42.138;24.742;2023-05-08T10:32:19;4.30;;;2.63;;
80237;SDS011;69544;42.138;24.742;2023-05-08T10:34:55;4.78;;;2.80;;
80237;SDS011;69544;42.138;24.742;2023-05-08T10:37:23;4.30;;;2.90;;
80237;SDS011;69544;42.138;24.742;2023-05-08T10:39:49;5.32;;;2.83;;
80237;SDS011;69544;42.138;24.742;2023-05-08T10:42:18;4.97;;;2.90;;
80237;SDS011;69544;42.138;24.742;2023-05-08T10:44:44;4.75;;;2.80;;
80237;SDS011;69544;42.138;24.742;2023-05-08T10:50:03;4.30;;;2.67;;
80237;SDS011;69544;42.138;24.742;2023-05-08T10:52:50;4.85;;;2.70;;
80237;SDS011;69544;42.138;24.742;2023-05-08T10:55:36;5.28;;;2.80;;
80237;SDS011;69544;42.138;24.742;2023-05-08T10:58:10;4.80;;;3.00;;
80237;SDS011;69544;42.138;24.742;2023-05-08T11:03:15;5.55;;;2.90;;
80237;SDS011;69544;42.138;24.742;2023-05-08T11:05:44;4.47;;;2.75;;
80237;SDS011;69544;42.138;24.742;2023-05-08T11:08:14;5.00;;;2.85;;
80237;SDS011;69544;42.138;24.742;2023-05-08T11:13:49;5.80;;;2.88;;
80237;SDS011;69544;42.138;24.742;2023-05-08T11:16:14;4.00;;;2.92;;
80237;SDS011;69544;42.138;24.742;2023-05-08T11:22:10;4.80;;;3.00;;
80237;SDS011;69544;42.138;24.742;2023-05-08T11:24:36;4.55;;;2.88;;
80237;SDS011;69544;42.138;24.742;2023-05-08T11:27:03;3.50;;;2.50;;
80237;SDS011;69544;42.138;24.742;2023-05-08T11:29:28;3.80;;;2.72;;
80237;SDS011;69544;42.138;24.742;2023-05-08T11:31:54;5.28;;;2.70;;
80237;SDS011;69544;42.138;24.742;2023-05-08T11:37:18;4.80;;;2.65;;
80237;SDS011;69544;42.138;24.742;2023-05-08T11:39:46;4.72;;;2.90;;
80237;SDS011;69544;42.138;24.742;2023-05-08T11:50:06;3.65;;;2.50;;
80237;SDS011;69544;42.138;24.742;2023-05-08T11:52:34;4.47;;;2.70;;
80237;SDS011;69544;42.138;24.742;2023-05-08T11:55:04;4.32;;;2.80;;
80237;SDS011;69544;42.138;24.742;2023-05-08T11:57:34;4.53;;;2.70;;
80237;SDS011;69544;42.138;24.742;2023-05-08T12:00:03;3.35;;;2.47;;
80237;SDS011;69544;42.138;24.742;2023-05-08T12:02:40;4.13;;;2.70;;
80237;SDS011;69544;42.138;24.742;2023-05-08T12:05:07;4.15;;;2.78;;
80237;SDS011;69544;42.138;24.742;2023-05-08T12:07:43;3.42;;;2.78;;
80237;SDS011;69544;42.138;24.742;2023-05-08T12:10:10;3.55;;;2.53;;
80237;SDS011;69544;42.138;24.742;2023-05-08T12:12:40;3.60;;;2.65;;
80237;SDS011;69544;42.138;24.742;2023-05-08T12:15:10;3.83;;;2.60;;
80237;SDS011;69544;42.138;24.742;2023-05-08T12:17:38;6.28;;;2.58;;
80237;SDS011;69544;42.138;24.742;2023-05-08T12:20:10;3.40;;;2.45;;
80237;SDS011;69544;42.138;24.742;2023-05-08T12:22:41;3.50;;;2.65;;
80237;SDS011;69544;42.138;24.742;2023-05-08T12:25:15;4.40;;;2.80;;
80237;SDS011;69544;42.138;24.742;2023-05-08T12:27:42;4.53;;;2.65;;
80237;SDS011;69544;42.138;24.742;2023-05-08T12:30:09;4.10;;;2.63;;
80237;SDS011;69544;42.138;24.742;2023-05-08T12:32:38;3.50;;;2.63;;
80237;SDS011;69544;42.138;24.742;2023-05-08T12:35:08;3.45;;;2.53;;
80237;SDS011;69544;42.138;24.742;2023-05-08T12:37:38;3.60;;;2.55;;
80237;SDS011;69544;42.138;24.742;2023-05-08T12:40:04;4.63;;;2.78;;
80237;SDS011;69544;42.138;24.742;2023-05-08T12:42:44;4.10;;;2.28;;
80237;SDS011;69544;42.138;24.742;2023-05-08T12:45:18;5.00;;;2.60;;
80237;SDS011;69544;42.138;24.742;2023-05-08T12:47:49;3.22;;;2.30;;
80237;SDS011;69544;42.138;24.742;2023-05-08T12:50:17;3.53;;;2.63;;
80237;SDS011;69544;42.138;24.742;2023-05-08T12:52:48;4.05;;;2.88;;
80237;SDS011;69544;42.138;24.742;2023-05-08T12:57:49;3.63;;;2.55;;
80237;SDS011;69544;42.138;24.742;2023-05-08T13:00:22;3.47;;;2.58;;
80237;SDS011;69544;42.138;24.742;2023-05-08T13:02:51;3.90;;;2.50;;
80237;SDS011;69544;42.138;24.742;2023-05-08T13:05:21;3.38;;;2.60;;
80237;SDS011;69544;42.138;24.742;2023-05-08T13:07:48;3.65;;;2.50;;
80237;SDS011;69544;42.138;24.742;2023-05-08T13:10:15;4.00;;;2.58;;
80237;SDS011;69544;42.138;24.742;2023-05-08T13:12:45;3.65;;;2.58;;
80237;SDS011;69544;42.138;24.742;2023-05-08T13:15:11;4.85;;;2.60;;
80237;SDS011;69544;42.138;24.742;2023-05-08T13:17:37;3.80;;;2.67;;
80237;SDS011;69544;42.138;24.742;2023-05-08T13:20:03;3.67;;;2.60;;
80237;SDS011;69544;42.138;24.742;2023-05-08T13:22:29;4.00;;;2.55;;
80237;SDS011;69544;42.138;24.742;2023-05-08T13:24:55;4.63;;;2.80;;
80237;SDS011;69544;42.138;24.742;2023-05-08T13:27:21;4.28;;;2.60;;
80237;SDS011;69544;42.138;24.742;2023-05-08T13:29:47;4.80;;;2.70;;
80237;SDS011;69544;42.138;24.742;2023-05-08T13:32:13;3.75;;;2.25;;
80237;SDS011;69544;42.138;24.742;2023-05-08T13:34:39;3.70;;;2.55;;
80237;SDS011;69544;42.138;24.742;2023-05-08T13:37:04;3.42;;;2.70;;
80237;SDS011;69544;42.138;24.742;2023-05-08T13:39:30;3.35;;;2.45;;
80237;SDS011;69544;42.138;24.742;2023-05-08T13:42:01;4.03;;;2.65;;
80237;SDS011;69544;42.138;24.742;2023-05-08T13:44:29;3.55;;;2.50;;
80237;SDS011;69544;42.138;24.742;2023-05-08T13:46:55;3.08;;;2.38;;
80237;SDS011;69544;42.138;24.742;2023-05-08T13:49:21;3.70;;;2.60;;
80237;SDS011;69544;42.138;24.742;2023-05-08T13:51:48;3.72;;;2.53;;
80237;SDS011;69544;42.138;24.742;2023-05-08T13:54:15;4.10;;;2.40;;
80237;SDS011;69544;42.138;24.742;2023-05-08T13:56:40;3.58;;;2.58;;
80237;SDS011;69544;42.138;24.742;2023-05-08T13:59:06;4.80;;;2.70;;
80237;SDS011;69544;42.138;24.742;2023-05-08T14:01:32;4.00;;;2.55;;
80237;SDS011;69544;42.138;24.742;2023-05-08T14:03:58;3.17;;;2.40;;
80237;SDS011;69544;42.138;24.742;2023-05-08T14:06:24;3.17;;;2.30;;
80237;SDS011;69544;42.138;24.742;2023-05-08T14:08:49;3.28;;;2.40;;
80237;SDS011;69544;42.138;24.742;2023-05-08T14:11:15;4.25;;;2.80;;
80237;SDS011;69544;42.138;24.742;2023-05-08T14:13:41;4.65;;;2.42;;
80237;SDS011;69544;42.138;24.742;2023-05-08T14:16:07;3.13;;;2.40;;
80237;SDS011;69544;42.138;24.742;2023-05-08T14:18:34;3.25;;;2.40;;
80237;SDS011;69544;42.138;24.742;2023-05-08T14:21:00;3.97;;;2.60;;
80237;SDS011;69544;42.138;24.742;2023-05-08T14:23:26;3.65;;;2.60;;
80237;SDS011;69544;42.138;24.742;2023-05-08T14:25:52;2.90;;;2.20;;
80237;SDS011;69544;42.138;24.742;2023-05-08T14:28:17;4.07;;;2.40;;
80237;SDS011;69544;42.138;24.742;2023-05-08T14:30:43;3.25;;;2.33;;
80237;SDS011;69544;42.138;24.742;2023-05-08T14:33:09;3.80;;;2.45;;
80237;SDS011;69544;42.138;24.742;2023-05-08T14:35:35;2.92;;;2.38;;
80237;SDS011;69544;42.138;24.742;2023-05-08T14:38:00;3.58;;;2.53;;
80237;SDS011;69544;42.138;24.742;2023-05-08T14:40:26;4.78;;;2.35;;
80237;SDS011;69544;42.138;24.742;2023-05-08T14:42:52;3.38;;;2.30;;
80237;SDS011;69544;42.138;24.742;2023-05-08T14:45:18;2.92;;;2.25;;
80237;SDS011;69544;42.138;24.742;2023-05-08T14:47:43;7.60;;;2.50;;
80237;SDS011;69544;42.138;24.742;2023-05-08T14:50:09;4.07;;;2.38;;
80237;SDS011;69544;42.138;24.742;2023-05-08T14:52:35;4.43;;;2.30;;
80237;SDS011;69544;42.138;24.742;2023-05-08T14:55:01;3.15;;;2.20;;
80237;SDS011;69544;42.138;24.742;2023-05-08T14:57:27;3.40;;;2.30;;
80237;SDS011;69544;42.138;24.742;2023-05-08T14:59:52;3.50;;;2.38;;
80237;SDS011;69544;42.138;24.742;2023-05-08T15:02:20;2.90;;;2.40;;
80237;SDS011;69544;42.138;24.742;2023-05-08T15:04:46;3.13;;;2.53;;
80237;SDS011;69544;42.138;24.742;2023-05-08T15:07:12;2.85;;;2.30;;
80237;SDS011;69544;42.138;24.742;2023-05-08T15:09:38;2.78;;;2.30;;
80237;SDS011;69544;42.138;24.742;2023-05-08T15:12:04;3.08;;;2.13;;
80237;SDS011;69544;42.138;24.742;2023-05-08T15:14:30;3.00;;;2.08;;
80237;SDS011;69544;42.138;24.742;2023-05-08T15:16:56;2.60;;;2.33;;
80237;SDS011;69544;42.138;24.742;2023-05-08T15:19:21;3.45;;;2.20;;
80237;SDS011;69544;42.138;24.742;2023-05-08T15:21:47;2.83;;;2.35;;
80237;SDS011;69544;42.138;24.742;2023-05-08T15:24:13;3.05;;;2.25;;
80237;SDS011;69544;42.138;24.742;2023-05-08T15:26:39;3.00;;;2.25;;
80237;SDS011;69544;42.138;24.742;2023-05-08T15:29:04;3.10;;;2.38;;
80237;SDS011;69544;42.138;24.742;2023-05-08T15:31:30;2.78;;;2.40;;
80237;SDS011;69544;42.138;24.742;2023-05-08T15:33:56;2.63;;;2.28;;
80237;SDS011;69544;42.138;24.742;2023-05-08T15:36:21;3.88;;;2.35;;
80237;SDS011;69544;42.138;24.742;2023-05-08T15:38:47;3.17;;;2.40;;
80237;SDS011;69544;42.138;24.742;2023-05-08T15:41:13;3.35;;;2.20;;
80237;SDS011;69544;42.138;24.742;2023-05-08T15:43:39;2.53;;;2.05;;
80237;SDS011;69544;42.138;24.742;2023-05-08T15:46:05;3.65;;;2.40;;
80237;SDS011;69544;42.138;24.742;2023-05-08T15:48:31;3.63;;;2.67;;